sensor_id;sensor_type;location;lat;lon;timestamp;P1;durP1;ratioP1;P2;durP2;ratioP2
26253;SDS011;53339;51.378;0.094;2023-02-08T00:00:58;23.05;;;10.55;;
26253;SDS011;53339;51.378;0.094;2023-02-08T00:03:26;25.00;;;13.40;;
26253;SDS011;53339;51.378;0.094;2023-02-08T00:05:55;21.95;;;9.43;;
26253;SDS011;53339;51.378;0.094;2023-02-08T00:08:22;23.48;;;11.32;;
26253;SDS011;53339;51.378;0.094;2023-02-08T00:10:50;19.67;;;10.15;;
26253;SDS011;53339;51.378;0.094;2023-02-08T00:13:17;19.58;;;9.00;;
26253;SDS011;53339;51.378;0.094;2023-02-08T00:15:45;29.20;;;11.07;;
26253;SDS011;53339;51.378;0.094;2023-02-08T00:18:13;22.63;;;9.48;;
26253;SDS011;53339;51.378;0.094;2023-02-08T00:20:41;22.77;;;10.27;;
26253;SDS011;53339;51.378;0.094;2023-02-08T00:23:10;24.05;;;9.80;;
26253;SDS011;53339;51.378;0.094;2023-02-08T00:25:39;13.27;;;6.50;;
26253;SDS011;53339;51.378;0.094;2023-02-08T00:28:08;22.85;;;8.60;;
26253;SDS011;53339;51.378;0.094;2023-02-08T00:30:41;16.98;;;10.73;;
26253;SDS011;53339;51.378;0.094;2023-02-08T00:33:10;15.52;;;7.25;;
26253;SDS011;53339;51.378;0.094;2023-02-08T00:35:37;10.75;;;6.18;;
26253;SDS011;53339;51.378;0.094;2023-02-08T00:38:05;7.72;;;4.40;;
26253;SDS011;53339;51.378;0.094;2023-02-08T00:40:32;19.92;;;8.57;;
26253;SDS011;53339;51.378;0.094;2023-02-08T00:43:00;20.40;;;9.77;;
26253;SDS011;53339;51.378;0.094;2023-02-08T00:45:28;9.07;;;6.88;;
26253;SDS011;53339;51.378;0.094;2023-02-08T00:47:56;14.35;;;6.57;;
26253;SDS011;53339;51.378;0.094;2023-02-08T00:50:24;14.90;;;7.60;;
26253;SDS011;53339;51.378;0.094;2023-02-08T00:52:51;21.45;;;13.38;;
26253;SDS011;53339;51.378;0.094;2023-02-08T00:55:19;12.55;;;9.57;;
26253;SDS011;53339;51.378;0.094;2023-02-08T00:57:46;10.25;;;4.60;;
26253;SDS011;53339;51.378;0.094;2023-02-08T01:00:14;16.33;;;8.70;;
26253;SDS011;53339;51.378;0.094;2023-02-08T01:02:42;18.42;;;8.50;;
26253;SDS011;53339;51.378;0.094;2023-02-08T01:05:10;14.95;;;7.00;;
26253;SDS011;53339;51.378;0.094;2023-02-08T01:07:38;8.75;;;4.07;;
26253;SDS011;53339;51.378;0.094;2023-02-08T01:10:09;8.38;;;4.85;;
26253;SDS011;53339;51.378;0.094;2023-02-08T01:12:39;15.23;;;6.50;;
26253;SDS011;53339;51.378;0.094;2023-02-08T01:15:07;33.83;;;9.75;;
26253;SDS011;53339;51.378;0.094;2023-02-08T01:17:35;5.10;;;3.80;;
26253;SDS011;53339;51.378;0.094;2023-02-08T01:20:03;5.28;;;3.63;;
26253;SDS011;53339;51.378;0.094;2023-02-08T01:22:30;16.80;;;6.50;;
26253;SDS011;53339;51.378;0.094;2023-02-08T01:24:59;6.68;;;4.35;;
26253;SDS011;53339;51.378;0.094;2023-02-08T01:27:28;5.82;;;4.78;;
26253;SDS011;53339;51.378;0.094;2023-02-08T01:29:56;14.23;;;5.88;;
26253;SDS011;53339;51.378;0.094;2023-02-08T01:32:23;18.40;;;9.93;;
26253;SDS011;53339;51.378;0.094;2023-02-08T01:34:51;12.95;;;7.90;;
26253;SDS011;53339;51.378;0.094;2023-02-08T01:37:18;5.75;;;4.20;;
26253;SDS011;53339;51.378;0.094;2023-02-08T01:39:46;10.90;;;5.25;;
26253;SDS011;53339;51.378;0.094;2023-02-08T01:42:14;16.73;;;5.57;;
26253;SDS011;53339;51.378;0.094;2023-02-08T01:47:44;10.95;;;5.22;;
26253;SDS011;53339;51.378;0.094;2023-02-08T01:50:18;12.68;;;6.22;;
26253;SDS011;53339;51.378;0.094;2023-02-08T01:52:48;15.68;;;6.40;;
26253;SDS011;53339;51.378;0.094;2023-02-08T01:55:19;12.35;;;5.20;;
26253;SDS011;53339;51.378;0.094;2023-02-08T01:57:52;10.32;;;5.07;;
26253;SDS011;53339;51.378;0.094;2023-02-08T02:00:24;9.77;;;3.95;;
26253;SDS011;53339;51.378;0.094;2023-02-08T02:02:52;10.48;;;5.80;;
26253;SDS011;53339;51.378;0.094;2023-02-08T02:05:23;8.45;;;5.20;;
26253;SDS011;53339;51.378;0.094;2023-02-08T02:07:53;8.75;;;3.95;;
26253;SDS011;53339;51.378;0.094;2023-02-08T02:10:27;13.65;;;5.80;;
26253;SDS011;53339;51.378;0.094;2023-02-08T02:13:02;12.40;;;6.10;;
26253;SDS011;53339;51.378;0.094;2023-02-08T02:15:35;9.18;;;5.38;;
26253;SDS011;53339;51.378;0.094;2023-02-08T02:18:04;9.25;;;4.45;;
26253;SDS011;53339;51.378;0.094;2023-02-08T02:34:53;13.63;;;5.75;;
26253;SDS011;53339;51.378;0.094;2023-02-08T02:38:01;14.32;;;5.47;;
26253;SDS011;53339;51.378;0.094;2023-02-08T02:43:30;14.52;;;5.70;;
26253;SDS011;53339;51.378;0.094;2023-02-08T02:51:47;16.05;;;6.88;;
26253;SDS011;53339;51.378;0.094;2023-02-08T02:56:43;11.25;;;8.88;;
26253;SDS011;53339;51.378;0.094;2023-02-08T02:59:14;12.20;;;6.20;;
26253;SDS011;53339;51.378;0.094;2023-02-08T03:01:43;11.20;;;6.55;;
26253;SDS011;53339;51.378;0.094;2023-02-08T03:04:13;12.73;;;8.05;;
26253;SDS011;53339;51.378;0.094;2023-02-08T03:09:22;11.65;;;5.43;;
26253;SDS011;53339;51.378;0.094;2023-02-08T03:12:29;9.52;;;5.50;;
26253;SDS011;53339;51.378;0.094;2023-02-08T03:18:16;7.55;;;4.38;;
26253;SDS011;53339;51.378;0.094;2023-02-08T03:24:03;14.60;;;6.30;;
26253;SDS011;53339;51.378;0.094;2023-02-08T03:26:36;4.95;;;3.38;;
26253;SDS011;53339;51.378;0.094;2023-02-08T03:29:12;7.55;;;4.45;;
26253;SDS011;53339;51.378;0.094;2023-02-08T03:31:56;10.32;;;9.00;;
26253;SDS011;53339;51.378;0.094;2023-02-08T03:34:36;9.55;;;4.70;;
26253;SDS011;53339;51.378;0.094;2023-02-08T03:40:01;3.85;;;3.20;;
26253;SDS011;53339;51.378;0.094;2023-02-08T03:42:33;11.13;;;6.07;;
26253;SDS011;53339;51.378;0.094;2023-02-08T03:45:14;8.43;;;4.53;;
26253;SDS011;53339;51.378;0.094;2023-02-08T03:47:46;4.55;;;2.88;;
26253;SDS011;53339;51.378;0.094;2023-02-08T03:52:45;10.30;;;5.63;;
26253;SDS011;53339;51.378;0.094;2023-02-08T03:55:19;7.53;;;3.33;;
26253;SDS011;53339;51.378;0.094;2023-02-08T03:57:52;18.27;;;5.63;;
26253;SDS011;53339;51.378;0.094;2023-02-08T04:00:27;9.98;;;5.15;;
26253;SDS011;53339;51.378;0.094;2023-02-08T04:03:08;11.27;;;9.77;;
26253;SDS011;53339;51.378;0.094;2023-02-08T04:05:46;6.53;;;4.38;;
26253;SDS011;53339;51.378;0.094;2023-02-08T04:08:14;8.32;;;7.55;;
26253;SDS011;53339;51.378;0.094;2023-02-08T04:10:41;11.20;;;9.38;;
26253;SDS011;53339;51.378;0.094;2023-02-08T04:13:09;14.13;;;6.30;;
26253;SDS011;53339;51.378;0.094;2023-02-08T04:15:37;9.07;;;3.72;;
26253;SDS011;53339;51.378;0.094;2023-02-08T04:18:04;5.72;;;3.67;;
26253;SDS011;53339;51.378;0.094;2023-02-08T04:20:32;8.25;;;4.85;;
26253;SDS011;53339;51.378;0.094;2023-02-08T04:22:59;7.43;;;4.88;;
26253;SDS011;53339;51.378;0.094;2023-02-08T04:25:27;7.80;;;4.72;;
26253;SDS011;53339;51.378;0.094;2023-02-08T04:27:54;6.57;;;4.13;;
26253;SDS011;53339;51.378;0.094;2023-02-08T04:30:22;6.82;;;4.18;;
26253;SDS011;53339;51.378;0.094;2023-02-08T04:32:49;11.88;;;5.30;;
26253;SDS011;53339;51.378;0.094;2023-02-08T04:35:17;7.85;;;4.32;;
26253;SDS011;53339;51.378;0.094;2023-02-08T04:37:44;12.13;;;6.05;;
26253;SDS011;53339;51.378;0.094;2023-02-08T04:40:12;13.90;;;4.72;;
26253;SDS011;53339;51.378;0.094;2023-02-08T04:42:39;14.80;;;6.38;;
26253;SDS011;53339;51.378;0.094;2023-02-08T04:45:07;10.30;;;5.00;;
26253;SDS011;53339;51.378;0.094;2023-02-08T04:47:35;11.18;;;4.75;;
26253;SDS011;53339;51.378;0.094;2023-02-08T04:50:03;6.57;;;4.18;;
26253;SDS011;53339;51.378;0.094;2023-02-08T04:52:30;13.23;;;8.10;;
26253;SDS011;53339;51.378;0.094;2023-02-08T04:54:58;10.13;;;4.45;;
26253;SDS011;53339;51.378;0.094;2023-02-08T04:57:25;10.07;;;6.22;;
26253;SDS011;53339;51.378;0.094;2023-02-08T04:59:53;8.05;;;4.65;;
26253;SDS011;53339;51.378;0.094;2023-02-08T05:02:20;13.55;;;6.57;;
26253;SDS011;53339;51.378;0.094;2023-02-08T05:04:48;10.25;;;5.28;;
26253;SDS011;53339;51.378;0.094;2023-02-08T05:07:15;11.15;;;8.25;;
26253;SDS011;53339;51.378;0.094;2023-02-08T05:09:43;9.70;;;5.65;;
26253;SDS011;53339;51.378;0.094;2023-02-08T05:12:10;12.30;;;10.25;;
26253;SDS011;53339;51.378;0.094;2023-02-08T05:14:38;11.63;;;5.82;;
26253;SDS011;53339;51.378;0.094;2023-02-08T05:17:05;8.38;;;4.53;;
26253;SDS011;53339;51.378;0.094;2023-02-08T05:19:33;14.50;;;4.15;;
26253;SDS011;53339;51.378;0.094;2023-02-08T05:22:01;13.07;;;6.45;;
26253;SDS011;53339;51.378;0.094;2023-02-08T05:24:29;15.77;;;4.95;;
26253;SDS011;53339;51.378;0.094;2023-02-08T05:26:57;16.58;;;6.07;;
26253;SDS011;53339;51.378;0.094;2023-02-08T05:29:24;11.43;;;6.22;;
26253;SDS011;53339;51.378;0.094;2023-02-08T05:31:52;15.40;;;10.27;;
26253;SDS011;53339;51.378;0.094;2023-02-08T05:34:19;13.77;;;11.02;;
26253;SDS011;53339;51.378;0.094;2023-02-08T05:36:47;16.38;;;9.25;;
26253;SDS011;53339;51.378;0.094;2023-02-08T05:39:14;9.65;;;6.70;;
26253;SDS011;53339;51.378;0.094;2023-02-08T05:41:42;12.13;;;7.05;;
26253;SDS011;53339;51.378;0.094;2023-02-08T05:44:09;16.27;;;5.70;;
26253;SDS011;53339;51.378;0.094;2023-02-08T05:46:37;12.90;;;7.45;;
26253;SDS011;53339;51.378;0.094;2023-02-08T05:49:04;10.35;;;5.70;;
26253;SDS011;53339;51.378;0.094;2023-02-08T05:51:32;14.60;;;7.03;;
26253;SDS011;53339;51.378;0.094;2023-02-08T05:53:59;16.55;;;9.90;;
26253;SDS011;53339;51.378;0.094;2023-02-08T05:56:27;14.60;;;6.50;;
26253;SDS011;53339;51.378;0.094;2023-02-08T05:58:55;39.53;;;9.18;;
26253;SDS011;53339;51.378;0.094;2023-02-08T06:01:23;11.77;;;4.13;;
26253;SDS011;53339;51.378;0.094;2023-02-08T06:03:50;15.63;;;5.93;;
26253;SDS011;53339;51.378;0.094;2023-02-08T06:06:18;7.80;;;4.47;;
26253;SDS011;53339;51.378;0.094;2023-02-08T06:08:46;8.02;;;4.53;;
26253;SDS011;53339;51.378;0.094;2023-02-08T06:11:13;11.95;;;6.25;;
26253;SDS011;53339;51.378;0.094;2023-02-08T06:13:41;18.80;;;7.65;;
26253;SDS011;53339;51.378;0.094;2023-02-08T06:16:12;5.15;;;3.53;;
26253;SDS011;53339;51.378;0.094;2023-02-08T06:18:40;18.38;;;7.90;;
26253;SDS011;53339;51.378;0.094;2023-02-08T06:21:08;14.35;;;6.75;;
26253;SDS011;53339;51.378;0.094;2023-02-08T06:23:36;17.30;;;8.98;;
26253;SDS011;53339;51.378;0.094;2023-02-08T06:26:03;9.30;;;6.80;;
26253;SDS011;53339;51.378;0.094;2023-02-08T06:28:31;12.18;;;6.93;;
26253;SDS011;53339;51.378;0.094;2023-02-08T06:30:58;14.50;;;7.57;;
26253;SDS011;53339;51.378;0.094;2023-02-08T06:33:26;17.38;;;7.82;;
26253;SDS011;53339;51.378;0.094;2023-02-08T06:35:53;8.32;;;4.72;;
26253;SDS011;53339;51.378;0.094;2023-02-08T06:38:21;10.90;;;5.05;;
26253;SDS011;53339;51.378;0.094;2023-02-08T06:40:48;13.82;;;8.27;;
26253;SDS011;53339;51.378;0.094;2023-02-08T06:43:16;21.42;;;8.93;;
26253;SDS011;53339;51.378;0.094;2023-02-08T06:45:44;9.40;;;5.70;;
26253;SDS011;53339;51.378;0.094;2023-02-08T06:48:13;10.48;;;5.90;;
26253;SDS011;53339;51.378;0.094;2023-02-08T06:50:41;10.27;;;5.93;;
26253;SDS011;53339;51.378;0.094;2023-02-08T06:53:09;19.35;;;7.60;;
26253;SDS011;53339;51.378;0.094;2023-02-08T06:55:36;15.15;;;5.60;;
26253;SDS011;53339;51.378;0.094;2023-02-08T06:58:04;10.90;;;6.28;;
26253;SDS011;53339;51.378;0.094;2023-02-08T07:00:32;13.85;;;6.45;;
26253;SDS011;53339;51.378;0.094;2023-02-08T07:02:59;15.93;;;7.47;;
26253;SDS011;53339;51.378;0.094;2023-02-08T07:05:27;13.32;;;10.45;;
26253;SDS011;53339;51.378;0.094;2023-02-08T07:07:54;12.73;;;6.70;;
26253;SDS011;53339;51.378;0.094;2023-02-08T07:10:22;14.02;;;6.72;;
26253;SDS011;53339;51.378;0.094;2023-02-08T07:12:49;16.70;;;7.65;;
26253;SDS011;53339;51.378;0.094;2023-02-08T07:15:17;20.75;;;9.25;;
26253;SDS011;53339;51.378;0.094;2023-02-08T07:17:44;20.25;;;8.13;;
26253;SDS011;53339;51.378;0.094;2023-02-08T07:20:12;16.85;;;7.32;;
26253;SDS011;53339;51.378;0.094;2023-02-08T07:22:40;25.77;;;8.80;;
26253;SDS011;53339;51.378;0.094;2023-02-08T07:25:08;17.60;;;7.90;;
26253;SDS011;53339;51.378;0.094;2023-02-08T07:27:35;11.68;;;6.88;;
26253;SDS011;53339;51.378;0.094;2023-02-08T07:30:03;17.55;;;8.05;;
26253;SDS011;53339;51.378;0.094;2023-02-08T07:32:31;18.83;;;13.18;;
26253;SDS011;53339;51.378;0.094;2023-02-08T07:35:00;20.10;;;8.45;;
26253;SDS011;53339;51.378;0.094;2023-02-08T07:37:28;15.52;;;7.07;;
26253;SDS011;53339;51.378;0.094;2023-02-08T07:39:57;11.93;;;5.78;;
26253;SDS011;53339;51.378;0.094;2023-02-08T07:42:25;16.13;;;9.70;;
26253;SDS011;53339;51.378;0.094;2023-02-08T07:45:04;18.98;;;7.93;;
26253;SDS011;53339;51.378;0.094;2023-02-08T07:47:32;15.70;;;8.43;;
26253;SDS011;53339;51.378;0.094;2023-02-08T07:49:59;17.20;;;9.73;;
26253;SDS011;53339;51.378;0.094;2023-02-08T07:52:27;19.88;;;13.73;;
26253;SDS011;53339;51.378;0.094;2023-02-08T07:54:55;22.10;;;9.80;;
26253;SDS011;53339;51.378;0.094;2023-02-08T07:57:23;17.70;;;10.07;;
26253;SDS011;53339;51.378;0.094;2023-02-08T07:59:50;18.83;;;9.73;;
26253;SDS011;53339;51.378;0.094;2023-02-08T08:02:20;24.38;;;10.07;;
26253;SDS011;53339;51.378;0.094;2023-02-08T08:04:47;20.95;;;9.05;;
26253;SDS011;53339;51.378;0.094;2023-02-08T08:07:15;21.73;;;9.45;;
26253;SDS011;53339;51.378;0.094;2023-02-08T08:09:43;16.50;;;7.55;;
26253;SDS011;53339;51.378;0.094;2023-02-08T08:12:10;15.10;;;13.60;;
26253;SDS011;53339;51.378;0.094;2023-02-08T08:14:37;18.42;;;9.95;;
26253;SDS011;53339;51.378;0.094;2023-02-08T08:17:05;19.52;;;9.55;;
26253;SDS011;53339;51.378;0.094;2023-02-08T08:19:32;30.42;;;11.18;;
26253;SDS011;53339;51.378;0.094;2023-02-08T08:22:00;24.83;;;9.40;;
26253;SDS011;53339;51.378;0.094;2023-02-08T08:24:27;22.27;;;9.95;;
26253;SDS011;53339;51.378;0.094;2023-02-08T08:26:57;8.15;;;4.55;;
26253;SDS011;53339;51.378;0.094;2023-02-08T08:29:24;10.25;;;7.25;;
26253;SDS011;53339;51.378;0.094;2023-02-08T08:31:52;12.70;;;7.00;;
26253;SDS011;53339;51.378;0.094;2023-02-08T08:34:19;20.42;;;12.20;;
26253;SDS011;53339;51.378;0.094;2023-02-08T08:36:48;12.43;;;7.05;;
26253;SDS011;53339;51.378;0.094;2023-02-08T08:39:15;11.73;;;10.73;;
26253;SDS011;53339;51.378;0.094;2023-02-08T08:41:43;12.02;;;5.95;;
26253;SDS011;53339;51.378;0.094;2023-02-08T08:44:10;12.93;;;6.70;;
26253;SDS011;53339;51.378;0.094;2023-02-08T08:46:38;8.95;;;5.78;;
26253;SDS011;53339;51.378;0.094;2023-02-08T08:49:06;15.85;;;11.38;;
26253;SDS011;53339;51.378;0.094;2023-02-08T08:51:33;22.30;;;11.35;;
26253;SDS011;53339;51.378;0.094;2023-02-08T08:54:01;25.70;;;11.55;;
26253;SDS011;53339;51.378;0.094;2023-02-08T08:56:29;8.32;;;5.78;;
26253;SDS011;53339;51.378;0.094;2023-02-08T08:58:57;10.60;;;7.90;;
26253;SDS011;53339;51.378;0.094;2023-02-08T09:01:24;28.63;;;10.93;;
26253;SDS011;53339;51.378;0.094;2023-02-08T09:03:52;24.95;;;11.90;;
26253;SDS011;53339;51.378;0.094;2023-02-08T09:06:20;27.63;;;11.80;;
26253;SDS011;53339;51.378;0.094;2023-02-08T09:08:47;14.13;;;6.50;;
26253;SDS011;53339;51.378;0.094;2023-02-08T09:11:17;26.67;;;15.60;;
26253;SDS011;53339;51.378;0.094;2023-02-08T09:13:45;27.88;;;11.85;;
26253;SDS011;53339;51.378;0.094;2023-02-08T09:16:14;23.17;;;13.60;;
26253;SDS011;53339;51.378;0.094;2023-02-08T09:18:43;17.00;;;7.35;;
26253;SDS011;53339;51.378;0.094;2023-02-08T09:21:16;23.08;;;16.58;;
26253;SDS011;53339;51.378;0.094;2023-02-08T09:23:45;26.23;;;12.55;;
26253;SDS011;53339;51.378;0.094;2023-02-08T09:26:16;29.20;;;15.80;;
26253;SDS011;53339;51.378;0.094;2023-02-08T09:28:44;29.75;;;11.88;;
26253;SDS011;53339;51.378;0.094;2023-02-08T09:31:22;30.45;;;17.10;;
26253;SDS011;53339;51.378;0.094;2023-02-08T09:33:53;36.55;;;13.82;;
26253;SDS011;53339;51.378;0.094;2023-02-08T09:36:23;14.13;;;6.68;;
26253;SDS011;53339;51.378;0.094;2023-02-08T09:38:56;10.38;;;5.93;;
26253;SDS011;53339;51.378;0.094;2023-02-08T09:41:30;31.95;;;16.45;;
26253;SDS011;53339;51.378;0.094;2023-02-08T09:44:21;34.17;;;15.23;;
26253;SDS011;53339;51.378;0.094;2023-02-08T09:49:53;15.35;;;6.85;;
26253;SDS011;53339;51.378;0.094;2023-02-08T09:52:33;40.10;;;18.33;;
26253;SDS011;53339;51.378;0.094;2023-02-08T09:55:16;19.50;;;9.60;;
26253;SDS011;53339;51.378;0.094;2023-02-08T09:57:52;21.92;;;15.77;;
26253;SDS011;53339;51.378;0.094;2023-02-08T10:00:24;31.63;;;15.38;;
26253;SDS011;53339;51.378;0.094;2023-02-08T10:03:26;37.70;;;14.15;;
26253;SDS011;53339;51.378;0.094;2023-02-08T10:06:04;18.40;;;10.00;;
26253;SDS011;53339;51.378;0.094;2023-02-08T10:08:33;32.40;;;17.40;;
26253;SDS011;53339;51.378;0.094;2023-02-08T10:30:44;30.17;;;13.55;;
26253;SDS011;53339;51.378;0.094;2023-02-08T10:35:52;22.52;;;10.57;;
26253;SDS011;53339;51.378;0.094;2023-02-08T10:38:27;15.13;;;12.52;;
26253;SDS011;53339;51.378;0.094;2023-02-08T10:41:14;42.55;;;16.60;;
26253;SDS011;53339;51.378;0.094;2023-02-08T10:43:59;37.38;;;17.45;;
26253;SDS011;53339;51.378;0.094;2023-02-08T10:49:43;39.00;;;20.40;;
26253;SDS011;53339;51.378;0.094;2023-02-08T10:52:25;47.63;;;25.85;;
26253;SDS011;53339;51.378;0.094;2023-02-08T10:54:54;45.15;;;24.88;;
26253;SDS011;53339;51.378;0.094;2023-02-08T10:57:31;45.15;;;20.83;;
26253;SDS011;53339;51.378;0.094;2023-02-08T11:00:02;47.53;;;24.25;;
26253;SDS011;53339;51.378;0.094;2023-02-08T11:02:33;47.15;;;25.13;;
26253;SDS011;53339;51.378;0.094;2023-02-08T11:05:07;42.78;;;24.00;;
26253;SDS011;53339;51.378;0.094;2023-02-08T11:07:35;41.28;;;18.17;;
26253;SDS011;53339;51.378;0.094;2023-02-08T11:12:55;39.05;;;19.95;;
26253;SDS011;53339;51.378;0.094;2023-02-08T11:15:25;30.73;;;19.08;;
26253;SDS011;53339;51.378;0.094;2023-02-08T11:17:59;30.40;;;16.75;;
26253;SDS011;53339;51.378;0.094;2023-02-08T11:20:30;27.42;;;16.40;;
26253;SDS011;53339;51.378;0.094;2023-02-08T11:23:03;31.70;;;18.23;;
26253;SDS011;53339;51.378;0.094;2023-02-08T11:25:42;24.75;;;10.98;;
26253;SDS011;53339;51.378;0.094;2023-02-08T11:28:24;31.88;;;18.98;;
26253;SDS011;53339;51.378;0.094;2023-02-08T11:31:00;30.40;;;17.08;;
26253;SDS011;53339;51.378;0.094;2023-02-08T11:33:34;31.45;;;13.60;;
26253;SDS011;53339;51.378;0.094;2023-02-08T11:36:06;28.48;;;18.08;;
26253;SDS011;53339;51.378;0.094;2023-02-08T11:38:40;23.95;;;15.93;;
26253;SDS011;53339;51.378;0.094;2023-02-08T11:41:16;30.90;;;18.92;;
26253;SDS011;53339;51.378;0.094;2023-02-08T11:44:00;34.15;;;15.77;;
26253;SDS011;53339;51.378;0.094;2023-02-08T11:46:31;29.27;;;14.63;;
26253;SDS011;53339;51.378;0.094;2023-02-08T11:49:00;27.38;;;17.30;;
26253;SDS011;53339;51.378;0.094;2023-02-08T11:53:58;22.85;;;11.32;;
26253;SDS011;53339;51.378;0.094;2023-02-08T11:56:27;15.57;;;7.88;;
26253;SDS011;53339;51.378;0.094;2023-02-08T12:01:39;26.65;;;13.20;;
26253;SDS011;53339;51.378;0.094;2023-02-08T12:04:15;22.48;;;15.35;;
26253;SDS011;53339;51.378;0.094;2023-02-08T12:22:24;22.92;;;12.10;;
26253;SDS011;53339;51.378;0.094;2023-02-08T12:39:44;24.63;;;12.18;;
26253;SDS011;53339;51.378;0.094;2023-02-08T12:45:25;20.85;;;11.00;;
26253;SDS011;53339;51.378;0.094;2023-02-08T12:53:34;22.15;;;10.80;;
26253;SDS011;53339;51.378;0.094;2023-02-08T12:56:08;23.27;;;13.23;;
26253;SDS011;53339;51.378;0.094;2023-02-08T12:58:43;24.00;;;15.02;;
26253;SDS011;53339;51.378;0.094;2023-02-08T13:01:17;24.35;;;11.38;;
26253;SDS011;53339;51.378;0.094;2023-02-08T13:06:42;24.73;;;16.13;;
26253;SDS011;53339;51.378;0.094;2023-02-08T13:09:17;27.58;;;16.90;;
26253;SDS011;53339;51.378;0.094;2023-02-08T13:11:54;25.15;;;12.77;;
26253;SDS011;53339;51.378;0.094;2023-02-08T13:17:20;17.75;;;9.30;;
26253;SDS011;53339;51.378;0.094;2023-02-08T13:22:27;18.48;;;10.85;;
26253;SDS011;53339;51.378;0.094;2023-02-08T13:25:00;20.15;;;9.00;;
26253;SDS011;53339;51.378;0.094;2023-02-08T13:27:34;22.92;;;13.88;;
26253;SDS011;53339;51.378;0.094;2023-02-08T13:30:02;22.63;;;10.93;;
26253;SDS011;53339;51.378;0.094;2023-02-08T13:32:35;22.95;;;10.35;;
26253;SDS011;53339;51.378;0.094;2023-02-08T13:35:26;20.90;;;11.27;;
26253;SDS011;53339;51.378;0.094;2023-02-08T13:38:06;25.33;;;14.10;;
26253;SDS011;53339;51.378;0.094;2023-02-08T13:41:14;23.05;;;13.90;;
26253;SDS011;53339;51.378;0.094;2023-02-08T13:43:54;28.40;;;15.57;;
26253;SDS011;53339;51.378;0.094;2023-02-08T13:46:39;25.00;;;14.95;;
26253;SDS011;53339;51.378;0.094;2023-02-08T13:53:02;23.70;;;11.23;;
26253;SDS011;53339;51.378;0.094;2023-02-08T13:58:03;26.95;;;14.98;;
26253;SDS011;53339;51.378;0.094;2023-02-08T14:00:34;24.70;;;10.77;;
26253;SDS011;53339;51.378;0.094;2023-02-08T14:03:24;26.02;;;10.93;;
26253;SDS011;53339;51.378;0.094;2023-02-08T14:08:47;23.08;;;11.57;;
26253;SDS011;53339;51.378;0.094;2023-02-08T14:14:18;30.45;;;14.70;;
26253;SDS011;53339;51.378;0.094;2023-02-08T14:19:31;24.27;;;11.73;;
26253;SDS011;53339;51.378;0.094;2023-02-08T14:24:37;21.77;;;10.35;;
26253;SDS011;53339;51.378;0.094;2023-02-08T14:27:38;26.88;;;11.90;;
26253;SDS011;53339;51.378;0.094;2023-02-08T14:32:46;21.98;;;10.25;;
26253;SDS011;53339;51.378;0.094;2023-02-08T14:35:21;26.00;;;11.18;;
26253;SDS011;53339;51.378;0.094;2023-02-08T14:38:29;25.45;;;11.38;;
26253;SDS011;53339;51.378;0.094;2023-02-08T14:40:56;22.77;;;11.80;;
26253;SDS011;53339;51.378;0.094;2023-02-08T14:43:32;25.02;;;14.18;;
26253;SDS011;53339;51.378;0.094;2023-02-08T14:49:24;24.08;;;11.18;;
26253;SDS011;53339;51.378;0.094;2023-02-08T14:51:57;19.27;;;9.68;;
26253;SDS011;53339;51.378;0.094;2023-02-08T14:54:34;18.85;;;8.63;;
26253;SDS011;53339;51.378;0.094;2023-02-08T14:57:24;19.15;;;8.80;;
26253;SDS011;53339;51.378;0.094;2023-02-08T14:59:54;21.08;;;9.27;;
26253;SDS011;53339;51.378;0.094;2023-02-08T15:02:24;17.65;;;8.13;;
26253;SDS011;53339;51.378;0.094;2023-02-08T15:04:57;17.85;;;7.95;;
26253;SDS011;53339;51.378;0.094;2023-02-08T15:10:01;15.48;;;6.38;;
26253;SDS011;53339;51.378;0.094;2023-02-08T15:12:37;15.32;;;10.85;;
26253;SDS011;53339;51.378;0.094;2023-02-08T15:15:06;16.13;;;7.40;;
26253;SDS011;53339;51.378;0.094;2023-02-08T15:17:47;21.08;;;10.02;;
26253;SDS011;53339;51.378;0.094;2023-02-08T15:25:35;13.07;;;6.30;;
26253;SDS011;53339;51.378;0.094;2023-02-08T15:28:15;16.95;;;7.07;;
26253;SDS011;53339;51.378;0.094;2023-02-08T15:30:55;15.48;;;8.85;;
26253;SDS011;53339;51.378;0.094;2023-02-08T15:33:38;15.00;;;7.85;;
26253;SDS011;53339;51.378;0.094;2023-02-08T15:36:15;16.92;;;7.57;;
26253;SDS011;53339;51.378;0.094;2023-02-08T15:38:58;15.30;;;7.13;;
26253;SDS011;53339;51.378;0.094;2023-02-08T15:41:50;16.17;;;7.30;;
26253;SDS011;53339;51.378;0.094;2023-02-08T15:44:23;17.73;;;9.77;;
26253;SDS011;53339;51.378;0.094;2023-02-08T15:47:01;14.70;;;9.52;;
26253;SDS011;53339;51.378;0.094;2023-02-08T15:49:33;19.02;;;8.10;;
26253;SDS011;53339;51.378;0.094;2023-02-08T15:52:04;15.50;;;9.38;;
26253;SDS011;53339;51.378;0.094;2023-02-08T15:54:33;15.35;;;8.55;;
26253;SDS011;53339;51.378;0.094;2023-02-08T15:57:02;17.85;;;11.77;;
26253;SDS011;53339;51.378;0.094;2023-02-08T15:59:34;21.02;;;8.35;;
26253;SDS011;53339;51.378;0.094;2023-02-08T16:04:45;20.35;;;8.63;;
26253;SDS011;53339;51.378;0.094;2023-02-08T16:07:23;17.52;;;11.88;;
26253;SDS011;53339;51.378;0.094;2023-02-08T16:09:52;21.17;;;10.23;;
26253;SDS011;53339;51.378;0.094;2023-02-08T16:12:21;17.55;;;10.57;;
26253;SDS011;53339;51.378;0.094;2023-02-08T16:14:50;22.27;;;11.40;;
26253;SDS011;53339;51.378;0.094;2023-02-08T16:17:32;17.65;;;8.25;;
26253;SDS011;53339;51.378;0.094;2023-02-08T16:20:30;21.80;;;12.43;;
26253;SDS011;53339;51.378;0.094;2023-02-08T16:23:21;18.45;;;8.07;;
26253;SDS011;53339;51.378;0.094;2023-02-08T16:25:51;15.70;;;8.27;;
26253;SDS011;53339;51.378;0.094;2023-02-08T16:28:26;21.77;;;9.60;;
26253;SDS011;53339;51.378;0.094;2023-02-08T16:30:59;17.40;;;10.88;;
26253;SDS011;53339;51.378;0.094;2023-02-08T16:33:29;16.15;;;10.07;;
26253;SDS011;53339;51.378;0.094;2023-02-08T16:35:58;16.30;;;8.48;;
26253;SDS011;53339;51.378;0.094;2023-02-08T16:38:31;20.10;;;12.70;;
26253;SDS011;53339;51.378;0.094;2023-02-08T16:41:01;20.02;;;12.07;;
26253;SDS011;53339;51.378;0.094;2023-02-08T16:43:39;18.88;;;11.13;;
26253;SDS011;53339;51.378;0.094;2023-02-08T16:48:39;22.63;;;11.02;;
26253;SDS011;53339;51.378;0.094;2023-02-08T16:51:12;18.27;;;10.50;;
26253;SDS011;53339;51.378;0.094;2023-02-08T16:53:42;20.30;;;8.55;;
26253;SDS011;53339;51.378;0.094;2023-02-08T16:56:12;12.88;;;5.43;;
26253;SDS011;53339;51.378;0.094;2023-02-08T16:58:40;23.17;;;13.57;;
26253;SDS011;53339;51.378;0.094;2023-02-08T17:01:11;15.95;;;7.53;;
26253;SDS011;53339;51.378;0.094;2023-02-08T17:03:40;14.43;;;7.15;;
26253;SDS011;53339;51.378;0.094;2023-02-08T17:06:17;15.45;;;7.05;;
26253;SDS011;53339;51.378;0.094;2023-02-08T17:08:57;23.75;;;13.20;;
26253;SDS011;53339;51.378;0.094;2023-02-08T17:11:26;14.23;;;11.38;;
26253;SDS011;53339;51.378;0.094;2023-02-08T17:13:57;16.65;;;10.77;;
26253;SDS011;53339;51.378;0.094;2023-02-08T17:16:26;13.02;;;7.00;;
26253;SDS011;53339;51.378;0.094;2023-02-08T17:18:55;25.70;;;15.63;;
26253;SDS011;53339;51.378;0.094;2023-02-08T17:21:24;11.43;;;6.75;;
26253;SDS011;53339;51.378;0.094;2023-02-08T17:23:54;15.65;;;11.07;;
26253;SDS011;53339;51.378;0.094;2023-02-08T17:26:31;15.18;;;13.30;;
26253;SDS011;53339;51.378;0.094;2023-02-08T17:29:03;26.58;;;15.25;;
26253;SDS011;53339;51.378;0.094;2023-02-08T17:31:31;15.20;;;6.45;;
26253;SDS011;53339;51.378;0.094;2023-02-08T17:33:58;24.25;;;12.32;;
26253;SDS011;53339;51.378;0.094;2023-02-08T17:36:31;16.42;;;7.13;;
26253;SDS011;53339;51.378;0.094;2023-02-08T17:39:00;36.00;;;18.45;;